sensor_id;sensor_type;location;lat;lon;timestamp;pressure;altitude;pressure_sealevel;temperature;humidity
82035;BME280;71599;49.892;18.914;2024-03-02T00:00:25;98014.69;;;7.33;100.00
82035;BME280;71599;49.892;18.914;2024-03-02T00:05:50;98033.72;;;7.33;100.00
82035;BME280;71599;49.892;18.914;2024-03-02T00:10:51;98028.78;;;7.20;100.00
82035;BME280;71599;49.892;18.914;2024-03-02T00:15:55;98035.53;;;7.10;100.00
82035;BME280;71599;49.892;18.914;2024-03-02T00:20:57;98033.03;;;7.02;100.00
82035;BME280;71599;49.892;18.914;2024-03-02T00:25:59;98031.22;;;7.09;100.00
82035;BME280;71599;49.892;18.914;2024-03-02T00:31:04;98023.97;;;7.13;100.00
82035;BME280;71599;49.892;18.914;2024-03-02T00:36:06;98037.13;;;7.11;100.00
82035;BME280;71599;49.892;18.914;2024-03-02T00:41:07;98023.28;;;7.01;100.00
82035;BME280;71599;49.892;18.914;2024-03-02T00:46:18;98027.84;;;6.96;100.00
82035;BME280;71599;49.892;18.914;2024-03-02T00:51:20;98032.03;;;7.10;100.00
82035;BME280;71599;49.892;18.914;2024-03-02T00:56:22;98023.41;;;7.23;100.00
82035;BME280;71599;49.892;18.914;2024-03-02T01:01:25;98017.28;;;7.26;100.00
82035;BME280;71599;49.892;18.914;2024-03-02T01:06:26;98016.09;;;7.08;100.00
82035;BME280;71599;49.892;18.914;2024-03-02T01:11:27;98013.91;;;6.98;100.00
82035;BME280;71599;49.892;18.914;2024-03-02T01:16:29;98010.06;;;6.99;100.00
82035;BME280;71599;49.892;18.914;2024-03-02T01:21:30;98020.38;;;7.09;100.00
82035;BME280;71599;49.892;18.914;2024-03-02T01:26:31;98011.34;;;7.05;100.00
82035;BME280;71599;49.892;18.914;2024-03-02T01:31:34;98006.09;;;6.96;100.00
82035;BME280;71599;49.892;18.914;2024-03-02T01:36:34;97994.72;;;6.91;100.00
82035;BME280;71599;49.892;18.914;2024-03-02T01:41:36;97994.47;;;6.96;100.00
82035;BME280;71599;49.892;18.914;2024-03-02T01:46:38;97987.09;;;6.96;100.00
82035;BME280;71599;49.892;18.914;2024-03-02T01:51:39;97971.06;;;6.91;100.00
82035;BME280;71599;49.892;18.914;2024-03-02T01:56:40;97979.47;;;7.02;100.00
82035;BME280;71599;49.892;18.914;2024-03-02T02:01:43;97969.59;;;6.94;100.00
82035;BME280;71599;49.892;18.914;2024-03-02T02:06:44;97981.84;;;6.53;100.00
82035;BME280;71599;49.892;18.914;2024-03-02T02:11:45;97970.28;;;6.40;100.00
82035;BME280;71599;49.892;18.914;2024-03-02T02:16:47;97976.31;;;6.49;100.00
82035;BME280;71599;49.892;18.914;2024-03-02T02:21:50;97971.22;;;6.64;100.00
82035;BME280;71599;49.892;18.914;2024-03-02T02:26:51;97974.97;;;6.75;100.00
82035;BME280;71599;49.892;18.914;2024-03-02T02:31:52;97966.25;;;6.66;100.00
82035;BME280;71599;49.892;18.914;2024-03-02T02:36:55;97962.53;;;6.74;100.00
82035;BME280;71599;49.892;18.914;2024-03-02T02:41:56;97962.47;;;6.70;100.00
82035;BME280;71599;49.892;18.914;2024-03-02T02:46:57;97975.94;;;6.67;100.00
82035;BME280;71599;49.892;18.914;2024-03-02T02:51:59;97979.66;;;6.59;100.00
82035;BME280;71599;49.892;18.914;2024-03-02T02:57:00;97973.00;;;6.56;100.00
82035;BME280;71599;49.892;18.914;2024-03-02T03:02:01;97969.25;;;6.45;100.00
82035;BME280;71599;49.892;18.914;2024-03-02T03:07:04;97984.97;;;6.55;100.00
82035;BME280;71599;49.892;18.914;2024-03-02T03:12:05;97985.97;;;6.31;100.00
82035;BME280;71599;49.892;18.914;2024-03-02T03:17:06;97983.94;;;6.28;100.00
82035;BME280;71599;49.892;18.914;2024-03-02T03:22:09;97982.44;;;6.31;100.00
82035;BME280;71599;49.892;18.914;2024-03-02T03:27:10;97987.41;;;6.13;100.00
82035;BME280;71599;49.892;18.914;2024-03-02T03:32:11;97983.47;;;6.10;100.00
82035;BME280;71599;49.892;18.914;2024-03-02T03:37:13;97989.16;;;6.21;100.00
82035;BME280;71599;49.892;18.914;2024-03-02T03:42:14;97971.69;;;6.34;100.00
82035;BME280;71599;49.892;18.914;2024-03-02T03:47:15;97975.72;;;6.40;100.00
82035;BME280;71599;49.892;18.914;2024-03-02T03:52:18;97967.75;;;6.32;100.00
82035;BME280;71599;49.892;18.914;2024-03-02T03:57:19;97967.13;;;6.38;100.00
82035;BME280;71599;49.892;18.914;2024-03-02T04:02:20;97962.56;;;6.42;100.00
82035;BME280;71599;49.892;18.914;2024-03-02T04:07:22;97965.81;;;6.48;100.00
82035;BME280;71599;49.892;18.914;2024-03-02T04:12:23;97967.66;;;6.44;100.00
82035;BME280;71599;49.892;18.914;2024-03-02T04:17:24;97974.50;;;6.53;100.00
82035;BME280;71599;49.892;18.914;2024-03-02T04:22:27;97975.81;;;6.60;100.00
82035;BME280;71599;49.892;18.914;2024-03-02T04:27:28;97963.00;;;6.60;100.00
82035;BME280;71599;49.892;18.914;2024-03-02T04:32:29;97963.72;;;6.57;100.00
82035;BME280;71599;49.892;18.914;2024-03-02T04:37:31;97966.69;;;6.52;100.00
82035;BME280;71599;49.892;18.914;2024-03-02T04:42:33;97969.75;;;6.50;100.00
82035;BME280;71599;49.892;18.914;2024-03-02T04:47:34;97975.19;;;6.50;100.00
82035;BME280;71599;49.892;18.914;2024-03-02T04:52:36;97976.59;;;6.44;100.00
82035;BME280;71599;49.892;18.914;2024-03-02T04:57:37;97980.97;;;6.33;100.00
82035;BME280;71599;49.892;18.914;2024-03-02T05:02:38;97977.38;;;6.29;100.00
82035;BME280;71599;49.892;18.914;2024-03-02T05:07:40;97983.41;;;6.23;100.00
82035;BME280;71599;49.892;18.914;2024-03-02T05:12:42;97973.69;;;6.22;100.00
82035;BME280;71599;49.892;18.914;2024-03-02T05:17:43;97985.81;;;5.96;100.00
82035;BME280;71599;49.892;18.914;2024-03-02T05:22:45;97988.25;;;5.86;100.00
82035;BME280;71599;49.892;18.914;2024-03-02T05:27:46;97996.13;;;5.91;100.00
82035;BME280;71599;49.892;18.914;2024-03-02T05:32:47;98001.75;;;5.98;100.00
82035;BME280;71599;49.892;18.914;2024-03-02T05:37:49;98006.28;;;5.94;100.00
82035;BME280;71599;49.892;18.914;2024-03-02T05:42:50;98005.75;;;5.88;100.00
82035;BME280;71599;49.892;18.914;2024-03-02T05:47:51;98021.94;;;5.85;100.00
82035;BME280;71599;49.892;18.914;2024-03-02T05:52:54;98011.75;;;5.82;100.00
82035;BME280;71599;49.892;18.914;2024-03-02T05:57:55;98025.75;;;5.68;100.00
82035;BME280;71599;49.892;18.914;2024-03-02T06:02:56;98023.50;;;5.58;100.00
82035;BME280;71599;49.892;18.914;2024-03-02T06:07:59;98023.78;;;5.68;100.00
82035;BME280;71599;49.892;18.914;2024-03-02T06:13:00;98029.78;;;5.74;100.00
82035;BME280;71599;49.892;18.914;2024-03-02T06:18:01;98031.97;;;5.84;100.00
82035;BME280;71599;49.892;18.914;2024-03-02T06:23:03;98034.34;;;5.86;100.00
82035;BME280;71599;49.892;18.914;2024-03-02T06:28:05;98033.06;;;5.95;100.00
82035;BME280;71599;49.892;18.914;2024-03-02T06:33:06;98035.88;;;5.99;100.00
82035;BME280;71599;49.892;18.914;2024-03-02T06:38:08;98039.13;;;6.04;100.00
82035;BME280;71599;49.892;18.914;2024-03-02T06:43:09;98040.25;;;6.03;100.00
82035;BME280;71599;49.892;18.914;2024-03-02T06:48:10;98036.50;;;6.08;100.00
82035;BME280;71599;49.892;18.914;2024-03-02T06:53:13;98040.97;;;6.16;100.00
82035;BME280;71599;49.892;18.914;2024-03-02T06:58:14;98037.50;;;6.31;100.00
82035;BME280;71599;49.892;18.914;2024-03-02T07:03:15;98043.13;;;6.38;100.00
82035;BME280;71599;49.892;18.914;2024-03-02T07:08:17;98045.50;;;6.40;100.00
82035;BME280;71599;49.892;18.914;2024-03-02T07:13:18;98046.91;;;6.49;100.00
82035;BME280;71599;49.892;18.914;2024-03-02T07:18:19;98049.97;;;6.64;100.00
82035;BME280;71599;49.892;18.914;2024-03-02T07:23:22;98053.28;;;6.73;100.00
82035;BME280;71599;49.892;18.914;2024-03-02T07:28:23;98043.56;;;6.87;100.00
82035;BME280;71599;49.892;18.914;2024-03-02T07:33:24;98061.72;;;7.18;100.00
82035;BME280;71599;49.892;18.914;2024-03-02T07:38:27;98071.22;;;7.44;100.00
82035;BME280;71599;49.892;18.914;2024-03-02T07:43:28;98069.59;;;7.58;100.00
82035;BME280;71599;49.892;18.914;2024-03-02T07:48:30;98063.22;;;7.70;100.00
82035;BME280;71599;49.892;18.914;2024-03-02T07:53:32;98073.25;;;7.85;100.00
82035;BME280;71599;49.892;18.914;2024-03-02T07:58:33;98082.13;;;8.01;100.00
82035;BME280;71599;49.892;18.914;2024-03-02T08:03:34;98074.53;;;8.10;100.00
82035;BME280;71599;49.892;18.914;2024-03-02T08:08:37;98077.19;;;8.26;100.00
82035;BME280;71599;49.892;18.914;2024-03-02T08:13:38;98070.78;;;8.38;100.00
82035;BME280;71599;49.892;18.914;2024-03-02T08:18:39;98081.47;;;8.46;100.00
82035;BME280;71599;49.892;18.914;2024-03-02T08:23:42;98066.56;;;8.63;100.00
82035;BME280;71599;49.892;18.914;2024-03-02T08:28:43;98078.44;;;8.74;100.00
82035;BME280;71599;49.892;18.914;2024-03-02T08:33:44;98075.69;;;8.74;100.00
82035;BME280;71599;49.892;18.914;2024-03-02T08:38:48;98073.53;;;8.83;100.00
82035;BME280;71599;49.892;18.914;2024-03-02T08:43:49;98080.78;;;8.98;100.00
82035;BME280;71599;49.892;18.914;2024-03-02T08:48:50;98079.03;;;9.10;100.00
82035;BME280;71599;49.892;18.914;2024-03-02T08:53:53;98082.34;;;8.99;100.00
82035;BME280;71599;49.892;18.914;2024-03-02T08:58:54;98084.28;;;8.99;100.00
82035;BME280;71599;49.892;18.914;2024-03-02T09:03:55;98094.78;;;9.23;100.00
82035;BME280;71599;49.892;18.914;2024-03-02T09:08:57;98099.69;;;8.88;100.00
82035;BME280;71599;49.892;18.914;2024-03-02T09:13:58;98082.94;;;9.12;100.00
82035;BME280;71599;49.892;18.914;2024-03-02T09:18:59;98091.44;;;9.07;100.00
82035;BME280;71599;49.892;18.914;2024-03-02T09:24:02;98092.25;;;9.11;100.00
82035;BME280;71599;49.892;18.914;2024-03-02T09:29:03;98099.19;;;9.31;100.00
82035;BME280;71599;49.892;18.914;2024-03-02T09:34:04;98106.06;;;9.22;100.00
82035;BME280;71599;49.892;18.914;2024-03-02T09:39:07;98119.41;;;9.27;100.00
82035;BME280;71599;49.892;18.914;2024-03-02T09:44:08;98120.97;;;9.28;100.00
82035;BME280;71599;49.892;18.914;2024-03-02T09:49:11;98133.53;;;9.10;100.00
82035;BME280;71599;49.892;18.914;2024-03-02T09:54:13;98126.56;;;9.12;100.00
82035;BME280;71599;49.892;18.914;2024-03-02T09:59:14;98129.59;;;9.07;100.00
82035;BME280;71599;49.892;18.914;2024-03-02T10:04:15;98132.66;;;9.06;100.00
82035;BME280;71599;49.892;18.914;2024-03-02T10:09:27;98130.25;;;9.01;100.00
82035;BME280;71599;49.892;18.914;2024-03-02T10:14:28;98127.38;;;9.16;100.00
82035;BME280;71599;49.892;18.914;2024-03-02T10:19:29;98121.47;;;9.11;100.00
82035;BME280;71599;49.892;18.914;2024-03-02T10:24:36;98131.00;;;9.24;100.00
82035;BME280;71599;49.892;18.914;2024-03-02T10:29:38;98138.53;;;9.30;100.00
82035;BME280;71599;49.892;18.914;2024-03-02T10:34:40;98139.66;;;9.52;100.00
82035;BME280;71599;49.892;18.914;2024-03-02T10:39:45;98136.91;;;9.52;100.00
82035;BME280;71599;49.892;18.914;2024-03-02T10:44:47;98133.91;;;9.61;100.00
82035;BME280;71599;49.892;18.914;2024-03-02T10:49:51;98133.44;;;9.55;100.00
82035;BME280;71599;49.892;18.914;2024-03-02T10:54:54;98136.22;;;9.59;100.00
82035;BME280;71599;49.892;18.914;2024-03-02T10:59:57;98138.19;;;9.58;100.00
82035;BME280;71599;49.892;18.914;2024-03-02T11:05:05;98136.03;;;9.71;100.00
82035;BME280;71599;49.892;18.914;2024-03-02T11:10:08;98134.56;;;9.77;100.00
82035;BME280;71599;49.892;18.914;2024-03-02T11:15:10;98130.31;;;9.79;100.00
82035;BME280;71599;49.892;18.914;2024-03-02T11:20:12;98132.00;;;9.65;100.00
82035;BME280;71599;49.892;18.914;2024-03-02T11:25:25;98118.44;;;9.68;100.00
82035;BME280;71599;49.892;18.914;2024-03-02T11:30:48;98117.41;;;9.76;100.00
82035;BME280;71599;49.892;18.914;2024-03-02T11:35:49;98112.81;;;9.84;100.00
82035;BME280;71599;49.892;18.914;2024-03-02T11:40:52;98111.28;;;9.87;100.00
82035;BME280;71599;49.892;18.914;2024-03-02T11:45:57;98109.72;;;9.86;100.00
82035;BME280;71599;49.892;18.914;2024-03-02T11:50:58;98115.97;;;9.86;100.00
82035;BME280;71599;49.892;18.914;2024-03-02T11:56:02;98119.22;;;9.95;100.00
82035;BME280;71599;49.892;18.914;2024-03-02T12:01:03;98116.84;;;9.94;100.00
82035;BME280;71599;49.892;18.914;2024-03-02T12:06:04;98116.53;;;9.99;100.00
82035;BME280;71599;49.892;18.914;2024-03-02T12:11:07;98115.84;;;10.09;100.00
82035;BME280;71599;49.892;18.914;2024-03-02T12:16:08;98114.13;;;10.27;100.00
82035;BME280;71599;49.892;18.914;2024-03-02T12:21:08;98115.47;;;10.07;100.00
82035;BME280;71599;49.892;18.914;2024-03-02T12:26:11;98111.59;;;10.11;100.00
82035;BME280;71599;49.892;18.914;2024-03-02T12:31:12;98113.06;;;10.39;100.00
82035;BME280;71599;49.892;18.914;2024-03-02T12:36:13;98107.75;;;10.49;100.00
82035;BME280;71599;49.892;18.914;2024-03-02T12:41:16;98114.81;;;10.54;100.00
82035;BME280;71599;49.892;18.914;2024-03-02T12:46:17;98101.97;;;10.58;100.00
82035;BME280;71599;49.892;18.914;2024-03-02T12:51:18;98112.88;;;10.54;100.00
82035;BME280;71599;49.892;18.914;2024-03-02T12:56:21;98099.13;;;10.47;100.00
82035;BME280;71599;49.892;18.914;2024-03-02T13:01:22;98108.56;;;10.53;100.00
82035;BME280;71599;49.892;18.914;2024-03-02T13:06:23;98100.28;;;10.46;100.00
82035;BME280;71599;49.892;18.914;2024-03-02T13:11:25;98088.63;;;10.49;100.00
82035;BME280;71599;49.892;18.914;2024-03-02T13:16:26;98079.66;;;10.52;100.00
82035;BME280;71599;49.892;18.914;2024-03-02T13:21:28;98083.25;;;10.60;100.00
82035;BME280;71599;49.892;18.914;2024-03-02T13:26:30;98083.28;;;10.64;100.00
82035;BME280;71599;49.892;18.914;2024-03-02T13:31:31;98075.56;;;10.73;100.00
82035;BME280;71599;49.892;18.914;2024-03-02T13:36:32;98075.22;;;10.78;100.00
82035;BME280;71599;49.892;18.914;2024-03-02T13:41:34;98078.75;;;10.82;100.00
82035;BME280;71599;49.892;18.914;2024-03-02T13:46:35;98077.94;;;10.78;100.00
82035;BME280;71599;49.892;18.914;2024-03-02T13:51:36;98077.94;;;10.74;100.00
82035;BME280;71599;49.892;18.914;2024-03-02T13:56:39;98066.13;;;10.67;100.00
82035;BME280;71599;49.892;18.914;2024-03-02T14:01:40;98071.59;;;10.67;100.00
82035;BME280;71599;49.892;18.914;2024-03-02T14:06:41;98073.56;;;10.70;100.00
82035;BME280;71599;49.892;18.914;2024-03-02T14:11:44;98070.53;;;10.78;100.00
82035;BME280;71599;49.892;18.914;2024-03-02T14:16:45;98061.97;;;10.80;100.00
82035;BME280;71599;49.892;18.914;2024-03-02T14:21:47;98069.47;;;10.90;100.00
82035;BME280;71599;49.892;18.914;2024-03-02T14:26:49;98073.41;;;10.92;100.00
82035;BME280;71599;49.892;18.914;2024-03-02T14:31:50;98077.59;;;10.83;100.00
82035;BME280;71599;49.892;18.914;2024-03-02T14:36:51;98079.00;;;10.66;100.00
82035;BME280;71599;49.892;18.914;2024-03-02T14:41:53;98088.28;;;10.54;100.00
82035;BME280;71599;49.892;18.914;2024-03-02T14:46:54;98085.38;;;10.40;100.00
82035;BME280;71599;49.892;18.914;2024-03-02T14:51:56;98055.28;;;10.33;100.00
82035;BME280;71599;49.892;18.914;2024-03-02T14:56:58;98073.13;;;10.64;100.00
82035;BME280;71599;49.892;18.914;2024-03-02T15:01:59;98066.06;;;10.59;100.00
82035;BME280;71599;49.892;18.914;2024-03-02T15:07:00;98058.69;;;10.64;100.00
82035;BME280;71599;49.892;18.914;2024-03-02T15:12:03;98037.97;;;10.59;100.00
82035;BME280;71599;49.892;18.914;2024-03-02T15:17:05;98048.88;;;10.55;100.00
82035;BME280;71599;49.892;18.914;2024-03-02T15:22:06;98041.31;;;10.42;100.00
82035;BME280;71599;49.892;18.914;2024-03-02T15:27:08;98039.66;;;10.34;100.00
82035;BME280;71599;49.892;18.914;2024-03-02T15:32:09;98051.03;;;10.39;100.00
82035;BME280;71599;49.892;18.914;2024-03-02T15:37:10;98050.66;;;10.41;100.00
82035;BME280;71599;49.892;18.914;2024-03-02T15:42:13;98047.91;;;10.37;100.00
82035;BME280;71599;49.892;18.914;2024-03-02T15:47:14;98054.16;;;10.38;100.00
82035;BME280;71599;49.892;18.914;2024-03-02T15:52:15;98044.75;;;10.35;100.00
82035;BME280;71599;49.892;18.914;2024-03-02T15:57:17;98049.78;;;10.30;100.00
82035;BME280;71599;49.892;18.914;2024-03-02T16:02:18;98051.34;;;10.31;100.00
82035;BME280;71599;49.892;18.914;2024-03-02T16:07:19;98048.19;;;10.25;100.00
82035;BME280;71599;49.892;18.914;2024-03-02T16:12:22;98045.28;;;10.11;100.00
82035;BME280;71599;49.892;18.914;2024-03-02T16:17:23;98048.44;;;10.13;100.00
82035;BME280;71599;49.892;18.914;2024-03-02T16:22:24;98056.91;;;10.04;100.00
82035;BME280;71599;49.892;18.914;2024-03-02T16:27:26;98056.47;;;9.99;100.00
82035;BME280;71599;49.892;18.914;2024-03-02T16:32:27;98056.47;;;9.99;100.00
82035;BME280;71599;49.892;18.914;2024-03-02T16:37:28;98058.44;;;10.02;100.00
82035;BME280;71599;49.892;18.914;2024-03-02T16:42:31;98067.41;;;10.02;100.00
82035;BME280;71599;49.892;18.914;2024-03-02T16:47:32;98067.81;;;10.01;100.00
82035;BME280;71599;49.892;18.914;2024-03-02T16:52:32;98065.34;;;9.92;100.00
82035;BME280;71599;49.892;18.914;2024-03-02T16:57:35;98061.38;;;9.86;100.00
82035;BME280;71599;49.892;18.914;2024-03-02T17:02:36;98062.09;;;9.79;100.00
82035;BME280;71599;49.892;18.914;2024-03-02T17:07:37;98067.53;;;9.79;100.00
82035;BME280;71599;49.892;18.914;2024-03-02T17:12:39;98067.13;;;9.77;100.00
82035;BME280;71599;49.892;18.914;2024-03-02T17:17:40;98073.66;;;9.73;100.00
82035;BME280;71599;49.892;18.914;2024-03-02T17:22:41;98068.19;;;9.73;100.00
82035;BME280;71599;49.892;18.914;2024-03-02T17:27:43;98074.41;;;9.70;100.00
82035;BME280;71599;49.892;18.914;2024-03-02T17:32:44;98066.53;;;9.65;100.00
82035;BME280;71599;49.892;18.914;2024-03-02T17:37:45;98060.13;;;9.50;100.00
82035;BME280;71599;49.892;18.914;2024-03-02T17:42:48;98063.91;;;9.42;100.00
82035;BME280;71599;49.892;18.914;2024-03-02T17:47:49;98059.41;;;9.27;100.00
82035;BME280;71599;49.892;18.914;2024-03-02T17:52:50;98061.00;;;9.28;100.00
82035;BME280;71599;49.892;18.914;2024-03-02T17:57:52;98070.72;;;9.29;100.00
82035;BME280;71599;49.892;18.914;2024-03-02T18:02:53;98061.28;;;9.23;100.00
82035;BME280;71599;49.892;18.914;2024-03-02T18:07:54;98061.19;;;9.16;100.00
82035;BME280;71599;49.892;18.914;2024-03-02T18:12:56;98061.00;;;9.05;100.00
82035;BME280;71599;49.892;18.914;2024-03-02T18:17:57;98057.16;;;9.06;100.00
82035;BME280;71599;49.892;18.914;2024-03-02T18:22:58;98061.69;;;8.98;100.00
82035;BME280;71599;49.892;18.914;2024-03-02T18:28:01;98063.91;;;8.89;100.00
82035;BME280;71599;49.892;18.914;2024-03-02T18:33:02;98063.09;;;8.89;100.00
82035;BME280;71599;49.892;18.914;2024-03-02T18:38:03;98055.72;;;8.89;100.00
82035;BME280;71599;49.892;18.914;2024-03-02T18:43:06;98062.00;;;8.93;100.00
82035;BME280;71599;49.892;18.914;2024-03-02T18:48:07;98058.19;;;8.98;100.00
82035;BME280;71599;49.892;18.914;2024-03-02T18:53:08;98057.81;;;8.99;100.00
82035;BME280;71599;49.892;18.914;2024-03-02T18:58:11;98052.38;;;8.99;100.00
82035;BME280;71599;49.892;18.914;2024-03-02T19:03:12;98054.41;;;9.06;100.00
82035;BME280;71599;49.892;18.914;2024-03-02T19:08:13;98049.41;;;9.08;100.00
82035;BME280;71599;49.892;18.914;2024-03-02T19:13:15;98053.97;;;9.04;100.00
82035;BME280;71599;49.892;18.914;2024-03-02T19:18:17;98045.44;;;9.06;100.00
82035;BME280;71599;49.892;18.914;2024-03-02T19:23:18;98050.13;;;9.05;100.00
82035;BME280;71599;49.892;18.914;2024-03-02T19:28:20;98043.00;;;8.97;100.00
82035;BME280;71599;49.892;18.914;2024-03-02T19:33:21;98041.41;;;8.96;100.00
82035;BME280;71599;49.892;18.914;2024-03-02T19:38:22;98046.00;;;8.92;100.00
82035;BME280;71599;49.892;18.914;2024-03-02T19:43:24;98046.75;;;8.89;100.00
82035;BME280;71599;49.892;18.914;2024-03-02T19:48:25;98055.28;;;8.87;100.00
82035;BME280;71599;49.892;18.914;2024-03-02T19:53:26;98040.47;;;8.85;100.00
82035;BME280;71599;49.892;18.914;2024-03-02T19:58:29;98038.81;;;8.80;100.00
82035;BME280;71599;49.892;18.914;2024-03-02T20:03:30;98032.19;;;8.78;100.00
82035;BME280;71599;49.892;18.914;2024-03-02T20:08:31;98034.44;;;8.72;100.00
82035;BME280;71599;49.892;18.914;2024-03-02T20:13:34;98036.13;;;8.57;100.00
82035;BME280;71599;49.892;18.914;2024-03-02T20:18:35;98044.56;;;8.49;100.00
82035;BME280;71599;49.892;18.914;2024-03-02T20:23:36;98047.56;;;8.44;100.00
82035;BME280;71599;49.892;18.914;2024-03-02T20:28:39;98052.47;;;8.15;100.00
82035;BME280;71599;49.892;18.914;2024-03-02T20:33:40;98057.22;;;8.18;100.00
82035;BME280;71599;49.892;18.914;2024-03-02T20:38:44;98046.69;;;8.17;100.00
82035;BME280;71599;49.892;18.914;2024-03-02T20:43:46;98048.38;;;8.25;100.00
82035;BME280;71599;49.892;18.914;2024-03-02T20:48:48;98039.22;;;8.14;100.00
82035;BME280;71599;49.892;18.914;2024-03-02T20:53:49;98039.38;;;7.83;100.00
82035;BME280;71599;49.892;18.914;2024-03-02T20:58:51;98039.47;;;7.86;100.00
82035;BME280;71599;49.892;18.914;2024-03-02T21:03:52;98047.91;;;8.00;100.00
82035;BME280;71599;49.892;18.914;2024-03-02T21:08:53;98046.03;;;8.04;100.00
82035;BME280;71599;49.892;18.914;2024-03-02T21:13:56;98047.97;;;8.04;100.00
82035;BME280;71599;49.892;18.914;2024-03-02T21:18:56;98046.59;;;7.94;100.00
82035;BME280;71599;49.892;18.914;2024-03-02T21:23:57;98045.75;;;7.90;100.00
82035;BME280;71599;49.892;18.914;2024-03-02T21:29:00;98048.03;;;7.88;100.00
82035;BME280;71599;49.892;18.914;2024-03-02T21:34:01;98056.66;;;7.90;100.00
82035;BME280;71599;49.892;18.914;2024-03-02T21:39:02;98054.78;;;7.94;100.00
82035;BME280;71599;49.892;18.914;2024-03-02T21:44:05;98060.81;;;7.84;100.00
82035;BME280;71599;49.892;18.914;2024-03-02T21:49:06;98058.88;;;7.85;100.00
82035;BME280;71599;49.892;18.914;2024-03-02T21:54:07;98052.16;;;7.78;100.00
82035;BME280;71599;49.892;18.914;2024-03-02T21:59:09;98050.91;;;7.76;100.00
82035;BME280;71599;49.892;18.914;2024-03-02T22:04:10;98057.78;;;7.70;100.00
82035;BME280;71599;49.892;18.914;2024-03-02T22:09:11;98068.66;;;7.70;100.00
82035;BME280;71599;49.892;18.914;2024-03-02T22:14:17;98061.78;;;7.76;100.00
82035;BME280;71599;49.892;18.914;2024-03-02T22:19:20;98055.44;;;7.68;100.00
82035;BME280;71599;49.892;18.914;2024-03-02T22:24:21;98055.94;;;7.74;100.00
82035;BME280;71599;49.892;18.914;2024-03-02T22:29:24;98053.88;;;7.67;100.00
82035;BME280;71599;49.892;18.914;2024-03-02T22:34:25;98048.56;;;7.55;100.00
82035;BME280;71599;49.892;18.914;2024-03-02T22:39:26;98046.63;;;7.56;100.00
82035;BME280;71599;49.892;18.914;2024-03-02T22:44:28;98056.22;;;7.50;100.00
82035;BME280;71599;49.892;18.914;2024-03-02T22:49:29;98056.22;;;7.50;100.00
82035;BME280;71599;49.892;18.914;2024-03-02T22:54:30;98037.72;;;7.40;100.00
82035;BME280;71599;49.892;18.914;2024-03-02T22:59:32;98059.91;;;7.42;100.00
82035;BME280;71599;49.892;18.914;2024-03-02T23:04:33;98051.31;;;7.40;100.00
82035;BME280;71599;49.892;18.914;2024-03-02T23:09:34;98057.63;;;7.44;100.00
82035;BME280;71599;49.892;18.914;2024-03-02T23:14:37;98058.50;;;7.48;100.00
82035;BME280;71599;49.892;18.914;2024-03-02T23:19:38;98060.50;;;7.51;100.00
82035;BME280;71599;49.892;18.914;2024-03-02T23:24:39;98058.06;;;7.46;100.00
82035;BME280;71599;49.892;18.914;2024-03-02T23:29:41;98061.94;;;7.45;100.00
82035;BME280;71599;49.892;18.914;2024-03-02T23:34:42;98058.34;;;7.41;100.00
82035;BME280;71599;49.892;18.914;2024-03-02T23:39:43;98049.78;;;7.39;100.00
82035;BME280;71599;49.892;18.914;2024-03-02T23:44:45;98050.34;;;7.48;100.00
82035;BME280;71599;49.892;18.914;2024-03-02T23:49:46;98048.91;;;7.54;100.00
82035;BME280;71599;49.892;18.914;2024-03-02T23:54:47;98029.31;;;7.45;100.00
82035;BME280;71599;49.892;18.914;2024-03-02T23:59:50;98048.47;;;7.52;100.00
